createdAt,value
2017-12-02T00:00:50.728Z,0
2017-12-02T00:02:00.456Z,0
2017-12-02T00:03:10.175Z,0
2017-12-02T00:04:19.909Z,0
2017-12-02T00:05:29.925Z,0
2017-12-02T00:06:39.669Z,0
2017-12-02T00:07:49.386Z,0
2017-12-02T00:08:59.167Z,0
2017-12-02T00:10:08.623Z,0
2017-12-02T00:11:18.565Z,0
2017-12-02T00:12:28.304Z,0
2017-12-02T00:13:38.299Z,0
2017-12-02T00:14:48.280Z,0
2017-12-02T00:15:57.550Z,0
2017-12-02T00:17:07.268Z,0
2017-12-02T00:18:16.877Z,0
2017-12-02T00:19:26.916Z,0
2017-12-02T00:20:37.064Z,0
2017-12-02T00:21:47.086Z,0
2017-12-02T00:22:57.082Z,0
2017-12-02T00:24:06.542Z,0
2017-12-02T00:25:16.607Z,0
2017-12-02T00:26:26.339Z,0
2017-12-02T00:27:36.337Z,0
2017-12-02T00:28:46.076Z,0
2017-12-02T00:29:55.792Z,0
2017-12-02T00:31:05.518Z,0
2017-12-02T00:32:14.986Z,0
2017-12-02T00:33:24.980Z,0
2017-12-02T00:34:34.703Z,0
2017-12-02T00:35:44.431Z,0
2017-12-02T00:36:54.154Z,0
2017-12-02T00:38:04.148Z,0
2017-12-02T00:39:13.918Z,0
2017-12-02T00:40:23.924Z,0
2017-12-02T00:41:33.767Z,0
2017-12-02T00:42:43.764Z,0
2017-12-02T00:43:53.492Z,0
2017-12-02T00:45:02.967Z,0
2017-12-02T00:46:12.974Z,0
2017-12-02T00:47:22.972Z,0
2017-12-02T00:48:31.936Z,0
2017-12-02T00:49:41.678Z,0
2017-12-02T00:50:51.684Z,0
2017-12-02T00:52:01.420Z,0
2017-12-02T00:53:11.510Z,0
2017-12-02T00:54:21.317Z,0
2017-12-02T00:55:31.337Z,0
2017-12-02T00:56:41.084Z,0
2017-12-02T00:57:51.132Z,0
2017-12-02T00:59:00.879Z,0
2017-12-02T01:00:10.371Z,0
2017-12-02T01:01:20.467Z,0
2017-12-02T01:02:29.931Z,0
2017-12-02T01:03:39.919Z,0
2017-12-02T01:04:49.639Z,0
2017-12-02T01:05:59.368Z,0
2017-12-02T01:07:09.364Z,0
2017-12-02T01:08:19.375Z,0
2017-12-02T01:09:29.402Z,0
2017-12-02T01:10:39.389Z,0
2017-12-02T01:11:49.110Z,0
2017-12-02T01:12:59.092Z,0
2017-12-02T01:14:09.097Z,0
2017-12-02T01:15:19.122Z,0
2017-12-02T01:16:29.144Z,0
2017-12-02T01:17:39.333Z,0
2017-12-02T01:18:49.403Z,0
2017-12-02T01:19:59.183Z,0
2017-12-02T01:21:08.687Z,0
2017-12-02T01:22:18.732Z,0
2017-12-02T01:23:28.759Z,0
2017-12-02T01:24:38.744Z,0
2017-12-02T01:25:48.465Z,0
2017-12-02T01:26:58.191Z,0
2017-12-02T01:28:07.433Z,0
2017-12-02T01:29:16.886Z,0
2017-12-02T01:30:26.880Z,0
2017-12-02T01:31:36.600Z,0
2017-12-02T01:32:46.599Z,0
2017-12-02T01:33:56.329Z,0
2017-12-02T01:35:06.328Z,0
2017-12-02T01:36:16.326Z,0
2017-12-02T01:37:26.052Z,0
2017-12-02T01:38:36.075Z,0
2017-12-02T01:39:45.837Z,0
2017-12-02T01:40:55.303Z,0
2017-12-02T01:42:05.298Z,0
2017-12-02T01:43:14.765Z,0
2017-12-02T01:44:24.767Z,0
2017-12-02T01:45:34.250Z,0
2017-12-02T01:46:44.110Z,0
2017-12-02T01:47:54.124Z,0
2017-12-02T01:49:03.851Z,0
2017-12-02T01:50:13.970Z,0
2017-12-02T01:51:23.802Z,0
2017-12-02T01:52:33.544Z,0
2017-12-02T01:53:43.327Z,0
2017-12-02T01:54:53.323Z,0
2017-12-02T01:56:03.309Z,0
2017-12-02T01:57:12.769Z,0
2017-12-02T01:58:22.764Z,0
2017-12-02T01:59:33.007Z,0
2017-12-02T02:00:43.002Z,0
2017-12-02T02:01:52.745Z,0
2017-12-02T02:03:02.499Z,0
2017-12-02T02:04:12.517Z,0
2017-12-02T02:05:22.260Z,0
2017-12-02T02:06:32.247Z,0
2017-12-02T02:07:42.255Z,0
2017-12-02T02:08:51.999Z,0
2017-12-02T02:10:01.472Z,0
2017-12-02T02:11:11.636Z,0
2017-12-02T02:12:21.663Z,0
2017-12-02T02:13:31.418Z,0
2017-12-02T02:14:41.472Z,0
2017-12-02T02:15:51.000Z,0
2017-12-02T02:17:00.471Z,0
2017-12-02T02:18:10.556Z,0
2017-12-02T02:19:20.295Z,0
2017-12-02T02:20:30.019Z,0
2017-12-02T02:21:40.033Z,0
2017-12-02T02:22:49.766Z,0
2017-12-02T02:23:59.266Z,0
2017-12-02T02:25:08.746Z,0
2017-12-02T02:26:18.276Z,0
2017-12-02T02:27:28.321Z,0
2017-12-02T02:28:37.806Z,0
2017-12-02T02:29:47.806Z,0
2017-12-02T02:30:57.808Z,0
2017-12-02T02:32:07.831Z,0
2017-12-02T02:33:17.844Z,0
2017-12-02T02:34:27.876Z,0
2017-12-02T02:35:37.351Z,0
2017-12-02T02:36:47.104Z,0
2017-12-02T02:37:56.582Z,0
2017-12-02T02:39:06.040Z,0
2017-12-02T02:40:16.046Z,0
2017-12-02T02:41:25.788Z,0
2017-12-02T02:42:35.257Z,0
2017-12-02T02:43:45.258Z,0
2017-12-02T02:44:54.750Z,0
2017-12-02T02:46:04.486Z,0
2017-12-02T02:47:14.225Z,0
2017-12-02T02:48:23.953Z,0
2017-12-02T02:49:33.694Z,0
2017-12-02T02:50:43.442Z,0
2017-12-02T02:51:53.453Z,0
2017-12-02T02:53:03.483Z,0
2017-12-02T02:54:13.491Z,0
2017-12-02T02:55:22.955Z,0
2017-12-02T02:56:32.682Z,0
2017-12-02T02:57:42.672Z,0
2017-12-02T02:58:52.399Z,0
2017-12-02T03:00:02.121Z,0
2017-12-02T03:01:11.850Z,0
2017-12-02T03:02:21.598Z,0
2017-12-02T03:03:31.598Z,0
2017-12-02T03:04:41.694Z,0
2017-12-02T03:05:51.551Z,0
2017-12-02T03:07:01.171Z,0
2017-12-02T03:08:11.003Z,0
2017-12-02T03:09:20.631Z,0
2017-12-02T03:10:30.780Z,0
2017-12-02T03:11:40.731Z,0
2017-12-02T03:12:50.660Z,0
2017-12-02T03:14:00.561Z,0
2017-12-02T03:15:10.370Z,0
2017-12-02T03:16:19.976Z,0
2017-12-02T03:17:29.830Z,0
2017-12-02T03:18:40.013Z,0
2017-12-02T03:19:49.859Z,0
2017-12-02T03:20:59.989Z,0
2017-12-02T03:22:10.100Z,0
2017-12-02T03:23:19.716Z,0
2017-12-02T03:24:28.793Z,0
2017-12-02T03:25:38.628Z,0
2017-12-02T03:26:48.993Z,0
2017-12-02T03:27:59.109Z,0
2017-12-02T03:29:08.718Z,0
2017-12-02T03:30:18.687Z,0
2017-12-02T03:31:28.492Z,0
2017-12-02T03:32:38.532Z,0
2017-12-02T03:33:48.099Z,0
2017-12-02T03:34:57.952Z,0
2017-12-02T03:36:08.044Z,0
2017-12-02T03:37:17.587Z,0
2017-12-02T03:38:27.159Z,0
2017-12-02T03:39:36.234Z,0
2017-12-02T03:40:46.104Z,0
2017-12-02T03:41:55.928Z,0
2017-12-02T03:43:05.496Z,0
2017-12-02T03:44:15.081Z,0
2017-12-02T03:45:24.916Z,0
2017-12-02T03:46:35.030Z,0
2017-12-02T03:47:44.595Z,0
2017-12-02T03:48:54.669Z,0
2017-12-02T03:50:04.273Z,0
2017-12-02T03:51:13.823Z,0
2017-12-02T03:52:23.728Z,0
2017-12-02T03:53:33.244Z,0
2017-12-02T03:54:42.807Z,0
2017-12-02T03:55:52.640Z,0
2017-12-02T03:57:02.798Z,0
2017-12-02T03:58:12.395Z,0
2017-12-02T03:59:22.579Z,0
2017-12-02T04:00:32.503Z,0
2017-12-02T04:01:41.889Z,0
2017-12-02T04:02:51.782Z,0
2017-12-02T04:04:01.615Z,0
2017-12-02T04:05:11.505Z,0
2017-12-02T04:06:21.358Z,0
2017-12-02T04:07:31.022Z,0
2017-12-02T04:08:40.379Z,0
2017-12-02T04:09:50.603Z,0
2017-12-02T04:11:01.079Z,0
2017-12-02T04:12:10.720Z,0
2017-12-02T04:13:20.477Z,0
2017-12-02T04:14:30.676Z,0
2017-12-02T04:15:40.317Z,0
2017-12-02T04:16:50.426Z,0
2017-12-02T04:17:59.808Z,0
2017-12-02T04:19:09.454Z,0
2017-12-02T04:20:19.599Z,0
2017-12-02T04:21:28.650Z,0
2017-12-02T04:22:38.529Z,0
2017-12-02T04:23:48.672Z,0
2017-12-02T04:24:58.545Z,0
2017-12-02T04:26:08.489Z,0
2017-12-02T04:27:18.635Z,0
2017-12-02T04:28:28.259Z,0
2017-12-02T04:29:37.865Z,0
2017-12-02T04:30:47.971Z,0
2017-12-02T04:31:58.051Z,0
2017-12-02T04:33:07.731Z,0
2017-12-02T04:34:17.969Z,0
2017-12-02T04:35:27.524Z,0
2017-12-02T04:36:37.118Z,0
2017-12-02T04:37:47.041Z,0
2017-12-02T04:38:56.675Z,0
2017-12-02T04:40:06.053Z,0
2017-12-02T04:41:15.470Z,0
2017-12-02T04:42:25.020Z,0
2017-12-02T04:43:35.147Z,0
2017-12-02T04:44:44.768Z,0
2017-12-02T04:45:54.650Z,0
2017-12-02T04:47:04.196Z,0
2017-12-02T04:48:13.711Z,0
2017-12-02T04:49:23.009Z,0
2017-12-02T04:50:32.541Z,0
2017-12-02T04:51:42.699Z,0
2017-12-02T04:52:52.384Z,0
2017-12-02T04:54:02.234Z,0
2017-12-02T04:55:12.096Z,0
2017-12-02T04:56:21.630Z,0
2017-12-02T04:57:30.902Z,0
2017-12-02T04:58:40.728Z,0
2017-12-02T04:59:50.612Z,0
2017-12-02T05:01:00.399Z,0
2017-12-02T05:02:09.909Z,0
2017-12-02T05:03:19.733Z,0
2017-12-02T05:04:29.594Z,0
2017-12-02T05:05:39.733Z,0
2017-12-02T05:06:49.264Z,0
2017-12-02T05:07:59.050Z,0
2017-12-02T05:09:08.990Z,0
2017-12-02T05:10:18.010Z,0
2017-12-02T05:11:27.415Z,0
2017-12-02T05:12:37.033Z,0
2017-12-02T05:13:47.182Z,0
2017-12-02T05:14:57.340Z,0
2017-12-02T05:16:06.816Z,0
2017-12-02T05:17:16.413Z,0
2017-12-02T05:18:25.995Z,0
2017-12-02T05:19:36.100Z,0
2017-12-02T05:20:45.647Z,0
2017-12-02T05:21:54.923Z,0
2017-12-02T05:23:04.456Z,0
2017-12-02T05:24:14.016Z,0
2017-12-02T05:25:23.910Z,0
2017-12-02T05:26:32.945Z,0
2017-12-02T05:27:42.772Z,0
2017-12-02T05:28:52.627Z,0
2017-12-02T05:30:02.847Z,0
2017-12-02T05:31:12.487Z,0
2017-12-02T05:32:22.435Z,0
2017-12-02T05:33:32.071Z,0
2017-12-02T05:34:41.721Z,0
2017-12-02T05:35:51.268Z,0
2017-12-02T05:37:01.093Z,0
2017-12-02T05:38:11.198Z,0
2017-12-02T05:39:21.152Z,0
2017-12-02T05:40:31.056Z,0
2017-12-02T05:41:40.688Z,0
2017-12-02T05:42:49.947Z,0
2017-12-02T05:43:59.848Z,0
2017-12-02T05:45:09.107Z,0
2017-12-02T05:46:18.943Z,0
2017-12-02T05:47:28.996Z,0
2017-12-02T05:48:39.108Z,0
2017-12-02T05:49:49.165Z,0
2017-12-02T05:50:59.002Z,0
2017-12-02T05:52:09.074Z,0
2017-12-02T05:53:18.594Z,0
2017-12-02T05:54:28.710Z,0
2017-12-02T05:55:38.581Z,0
2017-12-02T05:56:48.425Z,0
2017-12-02T05:57:58.578Z,0
2017-12-02T05:59:08.742Z,0
2017-12-02T06:00:18.594Z,0
2017-12-02T06:01:28.153Z,0
2017-12-02T06:02:38.003Z,0
2017-12-02T06:03:47.913Z,0
2017-12-02T06:04:57.652Z,0
2017-12-02T06:06:07.186Z,0
2017-12-02T06:07:16.794Z,0
2017-12-02T06:08:26.933Z,0
2017-12-02T06:09:36.232Z,0
2017-12-02T06:10:46.181Z,0
2017-12-02T06:11:56.300Z,0
2017-12-02T06:13:06.225Z,0
2017-12-02T06:14:16.141Z,0
2017-12-02T06:15:26.043Z,0
2017-12-02T06:16:35.440Z,0
2017-12-02T06:17:44.508Z,0
2017-12-02T06:18:54.363Z,0
2017-12-02T06:20:03.915Z,0
2017-12-02T06:21:13.462Z,0
2017-12-02T06:22:23.402Z,0
2017-12-02T06:23:33.512Z,0
2017-12-02T06:24:43.123Z,0
2017-12-02T06:25:53.226Z,0
2017-12-02T06:27:03.323Z,0
2017-12-02T06:28:13.455Z,0
2017-12-02T06:29:23.654Z,0
2017-12-02T06:30:33.882Z,0
2017-12-02T06:31:43.202Z,4
2017-12-02T06:32:53.096Z,4
2017-12-02T06:34:03.006Z,4
2017-12-02T06:35:13.055Z,4
2017-12-02T06:36:22.792Z,4
2017-12-02T06:37:32.796Z,4
2017-12-02T06:38:42.726Z,4
2017-12-02T06:39:52.296Z,4
2017-12-02T06:41:01.761Z,4
2017-12-02T06:42:11.766Z,4
2017-12-02T06:43:21.232Z,4
2017-12-02T06:44:30.983Z,4
2017-12-02T06:45:40.721Z,4
2017-12-02T06:46:50.466Z,0
2017-12-02T06:48:00.201Z,4
2017-12-02T06:49:09.715Z,4
2017-12-02T06:50:19.786Z,4
2017-12-02T06:51:29.785Z,0
2017-12-02T06:52:39.527Z,4
2017-12-02T06:53:49.255Z,4
2017-12-02T06:54:59.255Z,8
2017-12-02T06:56:09.060Z,4
2017-12-02T06:57:18.818Z,8
2017-12-02T06:58:28.543Z,4
2017-12-02T06:59:38.010Z,8
2017-12-02T07:00:48.015Z,8
2017-12-02T07:01:57.751Z,8
2017-12-02T07:03:07.213Z,8
2017-12-02T07:04:16.688Z,12
2017-12-02T07:05:26.165Z,12
2017-12-02T07:06:35.626Z,12
2017-12-02T07:07:45.637Z,20
2017-12-02T07:08:55.638Z,20
2017-12-02T07:10:05.120Z,20
2017-12-02T07:11:14.854Z,20
2017-12-02T07:12:24.879Z,24
2017-12-02T07:13:34.982Z,24
2017-12-02T07:14:45.033Z,32
2017-12-02T07:15:55.174Z,36
2017-12-02T07:17:04.924Z,36
2017-12-02T07:18:14.916Z,40
2017-12-02T07:19:24.381Z,44
2017-12-02T07:20:34.233Z,48
2017-12-02T07:21:44.009Z,52
2017-12-02T07:22:54.023Z,52
2017-12-02T07:24:04.032Z,60
2017-12-02T07:25:14.074Z,64
2017-12-02T07:26:24.083Z,68
2017-12-02T07:27:33.819Z,76
2017-12-02T07:28:43.572Z,80
2017-12-02T07:29:53.376Z,84
2017-12-02T07:31:02.867Z,88
2017-12-02T07:32:12.990Z,92
2017-12-02T07:33:23.097Z,92
2017-12-02T07:34:33.156Z,92
2017-12-02T07:35:43.164Z,96
2017-12-02T07:36:52.888Z,100
2017-12-02T07:38:02.348Z,104
2017-12-02T07:39:12.345Z,104
2017-12-02T07:40:22.355Z,108
2017-12-02T07:41:32.096Z,112
2017-12-02T07:42:41.842Z,124
2017-12-02T07:43:51.069Z,132
2017-12-02T07:45:00.524Z,140
2017-12-02T07:46:10.527Z,148
2017-12-02T07:47:19.994Z,152
2017-12-02T07:48:29.722Z,156
2017-12-02T07:49:39.460Z,160
2017-12-02T07:50:48.923Z,168
2017-12-02T07:51:58.667Z,176
2017-12-02T07:53:08.415Z,188
2017-12-02T07:54:18.155Z,196
2017-12-02T07:55:28.155Z,196
2017-12-02T07:56:38.164Z,200
2017-12-02T07:57:48.172Z,200
2017-12-02T07:58:57.896Z,212
2017-12-02T08:00:07.364Z,220
2017-12-02T08:01:17.351Z,220
2017-12-02T08:02:27.394Z,232
2017-12-02T08:03:36.919Z,252
2017-12-02T08:04:46.704Z,260
2017-12-02T08:05:56.720Z,272
2017-12-02T08:07:06.529Z,288
2017-12-02T08:08:15.726Z,296
2017-12-02T08:09:25.722Z,296
2017-12-02T08:10:35.464Z,304
2017-12-02T08:11:45.470Z,304
2017-12-02T08:12:55.209Z,312
2017-12-02T08:14:04.952Z,316
2017-12-02T08:15:14.685Z,328
2017-12-02T08:16:24.409Z,344
2017-12-02T08:17:34.137Z,344
2017-12-02T08:18:43.886Z,348
2017-12-02T08:19:53.085Z,360
2017-12-02T08:21:02.654Z,388
2017-12-02T08:22:12.128Z,396
2017-12-02T08:23:21.662Z,404
2017-12-02T08:24:30.868Z,428
2017-12-02T08:25:40.631Z,428
2017-12-02T08:26:50.368Z,420
2017-12-02T08:28:00.355Z,408
2017-12-02T08:29:10.087Z,404
2017-12-02T08:30:19.863Z,396
2017-12-02T08:31:29.327Z,404
2017-12-02T08:32:39.325Z,416
2017-12-02T08:33:49.334Z,444
2017-12-02T08:34:59.497Z,472
2017-12-02T08:36:08.966Z,492
2017-12-02T08:37:18.996Z,508
2017-12-02T08:38:28.993Z,512
2017-12-02T08:39:38.825Z,516
2017-12-02T08:40:48.480Z,524
2017-12-02T08:41:58.408Z,528
2017-12-02T08:43:08.349Z,516
2017-12-02T08:44:18.110Z,512
2017-12-02T08:45:27.888Z,508
2017-12-02T08:46:37.628Z,500
2017-12-02T08:47:47.368Z,496
2017-12-02T08:48:56.830Z,508
2017-12-02T08:50:06.084Z,536
2017-12-02T08:51:15.814Z,536
2017-12-02T08:52:25.289Z,520
2017-12-02T08:53:35.304Z,508
2017-12-02T08:54:44.788Z,520
2017-12-02T08:55:54.783Z,552
2017-12-02T08:57:04.283Z,580
2017-12-02T08:58:13.751Z,612
2017-12-02T08:59:23.524Z,632
2017-12-02T09:00:33.248Z,632
2017-12-02T09:01:43.247Z,620
2017-12-02T09:02:53.252Z,616
2017-12-02T09:04:03.243Z,636
2017-12-02T09:05:12.990Z,656
2017-12-02T09:06:22.714Z,668
2017-12-02T09:07:32.705Z,696
2017-12-02T09:08:42.788Z,740
2017-12-02T09:09:52.264Z,756
2017-12-02T09:11:01.987Z,760
2017-12-02T09:12:11.454Z,736
2017-12-02T09:13:21.462Z,728
2017-12-02T09:14:30.931Z,744
2017-12-02T09:15:40.934Z,768
2017-12-02T09:16:50.670Z,792
2017-12-02T09:18:00.685Z,792
2017-12-02T09:19:10.689Z,756
2017-12-02T09:20:20.452Z,708
2017-12-02T09:21:29.928Z,652
2017-12-02T09:22:39.669Z,656
2017-12-02T09:23:49.444Z,692
2017-12-02T09:24:59.438Z,700
2017-12-02T09:26:09.181Z,700
2017-12-02T09:27:18.698Z,676
2017-12-02T09:28:28.425Z,636
2017-12-02T09:29:38.415Z,628
2017-12-02T09:30:48.157Z,656
2017-12-02T09:31:57.627Z,676
2017-12-02T09:33:07.089Z,672
2017-12-02T09:34:16.288Z,676
2017-12-02T09:35:25.751Z,688
2017-12-02T09:36:35.482Z,680
2017-12-02T09:37:44.957Z,716
2017-12-02T09:38:54.702Z,732
2017-12-02T09:40:04.713Z,724
2017-12-02T09:41:14.441Z,716
2017-12-02T09:42:24.175Z,728
2017-12-02T09:43:33.901Z,720
2017-12-02T09:44:43.644Z,700
2017-12-02T09:45:53.382Z,664
2017-12-02T09:47:03.127Z,636
2017-12-02T09:48:12.640Z,632
2017-12-02T09:49:22.643Z,648
2017-12-02T09:50:32.892Z,676
2017-12-02T09:51:42.369Z,680
2017-12-02T09:52:52.110Z,704
2017-12-02T09:54:01.572Z,716
2017-12-02T09:55:11.577Z,704
2017-12-02T09:56:21.314Z,772
2017-12-02T09:57:31.321Z,844
2017-12-02T09:58:40.785Z,880
2017-12-02T09:59:50.794Z,832
2017-12-02T10:01:00.528Z,796
2017-12-02T10:02:10.254Z,792
2017-12-02T10:03:19.978Z,832
2017-12-02T10:04:29.720Z,840
2017-12-02T10:05:39.710Z,836
2017-12-02T10:06:49.712Z,824
2017-12-02T10:07:59.710Z,820
2017-12-02T10:09:09.720Z,848
2017-12-02T10:10:19.242Z,848
2017-12-02T10:11:29.496Z,868
2017-12-02T10:12:39.034Z,916
2017-12-02T10:13:49.038Z,944
2017-12-02T10:14:58.803Z,872
2017-12-02T10:16:08.107Z,792
2017-12-02T10:17:17.574Z,844
2017-12-02T10:18:27.313Z,864
2017-12-02T10:19:37.309Z,220
2017-12-02T10:20:46.779Z,732
2017-12-02T10:21:56.252Z,892
2017-12-02T10:23:05.974Z,980
2017-12-02T10:24:15.720Z,1008
2017-12-02T10:25:25.448Z,972
2017-12-02T10:26:35.489Z,968
2017-12-02T10:27:45.108Z,988
2017-12-02T10:28:55.111Z,968
2017-12-02T10:30:04.578Z,968
2017-12-02T10:31:14.308Z,1008
2017-12-02T10:32:24.044Z,1040
2017-12-02T10:33:33.773Z,1088
2017-12-02T10:34:43.517Z,1132
2017-12-02T10:35:52.984Z,1196
2017-12-02T10:37:02.121Z,1212
2017-12-02T10:38:12.221Z,1184
2017-12-02T10:39:22.416Z,1176
2017-12-02T10:40:32.541Z,1240
2017-12-02T10:41:42.672Z,1324
2017-12-02T10:42:52.510Z,1368
2017-12-02T10:44:02.510Z,1376
2017-12-02T10:45:12.370Z,1364
2017-12-02T10:46:22.549Z,1264
2017-12-02T10:47:32.370Z,1276
2017-12-02T10:48:42.351Z,1220
2017-12-02T10:49:52.276Z,1136
2017-12-02T10:51:02.357Z,1032
2017-12-02T10:52:12.181Z,988
2017-12-02T10:53:21.921Z,964
2017-12-02T10:54:31.980Z,928
2017-12-02T10:55:41.658Z,940
2017-12-02T10:56:51.589Z,960
2017-12-02T10:58:01.434Z,976
2017-12-02T10:59:10.995Z,1056
2017-12-02T11:00:20.732Z,1080
2017-12-02T11:01:31.234Z,1060
2017-12-02T11:02:41.364Z,996
2017-12-02T11:03:51.508Z,904
2017-12-02T11:05:01.352Z,876
2017-12-02T11:06:10.891Z,860
2017-12-02T11:07:20.435Z,812
2017-12-02T11:08:30.728Z,784
2017-12-02T11:09:40.788Z,784
2017-12-02T11:10:50.290Z,788
2017-12-02T11:12:00.368Z,832
2017-12-02T11:13:10.298Z,896
2017-12-02T11:14:20.368Z,912
2017-12-02T11:15:29.830Z,888
2017-12-02T11:16:39.569Z,868
2017-12-02T11:17:48.766Z,864
2017-12-02T11:18:57.700Z,868
2017-12-02T11:20:07.164Z,876
2017-12-02T11:21:17.158Z,876
2017-12-02T11:22:27.164Z,920
2017-12-02T11:23:37.163Z,964
2017-12-02T11:24:47.162Z,1008
2017-12-02T11:25:57.173Z,1052
2017-12-02T11:27:07.186Z,1084
2017-12-02T11:28:16.920Z,1112
2017-12-02T11:29:26.924Z,1092
2017-12-02T11:30:36.921Z,1072
2017-12-02T11:31:46.677Z,1056
2017-12-02T11:32:56.672Z,1072
2017-12-02T11:34:06.449Z,1084
2017-12-02T11:35:15.654Z,1092
2017-12-02T11:36:25.129Z,1140
2017-12-02T11:37:34.921Z,1164
2017-12-02T11:38:43.948Z,1176
2017-12-02T11:39:53.702Z,1224
2017-12-02T11:41:03.425Z,1244
2017-12-02T11:42:13.418Z,1228
2017-12-02T11:43:23.160Z,1152
2017-12-02T11:44:33.163Z,1076
2017-12-02T11:45:42.907Z,1028
2017-12-02T11:46:53.091Z,1028
2017-12-02T11:48:02.945Z,1080
2017-12-02T11:49:12.685Z,1116
2017-12-02T11:50:22.146Z,1104
2017-12-02T11:51:31.884Z,1080
2017-12-02T11:52:41.632Z,1064
2017-12-02T11:53:51.384Z,1048
2017-12-02T11:55:01.175Z,1024
2017-12-02T11:56:10.758Z,1000
2017-12-02T11:57:20.531Z,984
2017-12-02T11:58:30.535Z,992
2017-12-02T11:59:40.027Z,952
2017-12-02T12:00:50.029Z,936
2017-12-02T12:02:00.035Z,928
2017-12-02T12:03:09.523Z,940
2017-12-02T12:04:18.995Z,968
2017-12-02T12:05:29.083Z,1020
2017-12-02T12:06:39.267Z,1044
2017-12-02T12:07:49.915Z,1048
2017-12-02T12:08:59.682Z,1028
2017-12-02T12:10:08.631Z,936
2017-12-02T12:11:18.686Z,876
2017-12-02T12:12:28.483Z,848
2017-12-02T12:13:38.354Z,820
2017-12-02T12:14:47.615Z,828
2017-12-02T12:15:57.090Z,836
2017-12-02T12:17:06.310Z,864
2017-12-02T12:18:16.443Z,888
2017-12-02T12:19:26.177Z,880
2017-12-02T12:20:36.054Z,868
2017-12-02T12:21:46.034Z,876
2017-12-02T12:22:55.764Z,876
2017-12-02T12:24:04.968Z,848
2017-12-02T12:25:14.514Z,808
2017-12-02T12:26:24.512Z,768
2017-12-02T12:27:34.767Z,792
2017-12-02T12:28:44.655Z,812
2017-12-02T12:29:54.114Z,812
2017-12-02T12:31:04.192Z,808
2017-12-02T12:32:13.981Z,824
2017-12-02T12:33:24.171Z,860
2017-12-02T12:34:33.670Z,860
2017-12-02T12:35:43.516Z,840
2017-12-02T12:36:53.035Z,800
2017-12-02T12:38:02.767Z,756
2017-12-02T12:39:12.838Z,744
2017-12-02T12:40:22.593Z,788
2017-12-02T12:41:32.609Z,844
2017-12-02T12:42:42.450Z,924
2017-12-02T12:43:52.248Z,932
2017-12-02T12:45:01.979Z,872
2017-12-02T12:46:11.576Z,800
2017-12-02T12:47:21.153Z,764
2017-12-02T12:48:31.155Z,752
2017-12-02T12:49:40.914Z,724
2017-12-02T12:50:50.910Z,724
2017-12-02T12:52:00.141Z,752
2017-12-02T12:53:10.151Z,724
2017-12-02T12:54:19.619Z,708
2017-12-02T12:55:29.625Z,688
2017-12-02T12:56:39.631Z,680
2017-12-02T12:57:49.649Z,756
2017-12-02T12:58:59.418Z,776
2017-12-02T13:00:09.159Z,760
2017-12-02T13:01:19.174Z,760
2017-12-02T13:02:29.179Z,684
2017-12-02T13:03:39.171Z,628
2017-12-02T13:04:48.908Z,616
2017-12-02T13:05:58.904Z,628
2017-12-02T13:07:08.648Z,604
2017-12-02T13:08:18.376Z,576
2017-12-02T13:09:28.122Z,584
2017-12-02T13:10:37.859Z,580
2017-12-02T13:11:47.884Z,596
2017-12-02T13:12:57.358Z,592
2017-12-02T13:14:06.826Z,568
2017-12-02T13:15:16.018Z,536
2017-12-02T13:16:26.023Z,536
2017-12-02T13:17:35.744Z,528
2017-12-02T13:18:45.748Z,540
2017-12-02T13:19:55.492Z,572
2017-12-02T13:21:05.216Z,592
2017-12-02T13:22:14.957Z,560
2017-12-02T13:23:24.965Z,516
2017-12-02T13:24:34.463Z,492
2017-12-02T13:25:44.521Z,468
2017-12-02T13:26:54.537Z,440
2017-12-02T13:28:04.019Z,420
2017-12-02T13:29:12.987Z,416
2017-12-02T13:30:22.496Z,412
2017-12-02T13:31:32.322Z,400
2017-12-02T13:32:41.786Z,396
2017-12-02T13:33:51.527Z,388
2017-12-02T13:35:00.743Z,372
2017-12-02T13:36:10.481Z,364
2017-12-02T13:37:20.284Z,380
2017-12-02T13:38:30.025Z,372
2017-12-02T13:39:39.754Z,356
2017-12-02T13:40:49.488Z,356
2017-12-02T13:41:59.480Z,352
2017-12-02T13:43:09.224Z,368
2017-12-02T13:44:19.292Z,408
2017-12-02T13:45:28.765Z,412
2017-12-02T13:46:38.846Z,384
2017-12-02T13:47:48.594Z,376
2017-12-02T13:48:58.059Z,372
2017-12-02T13:50:07.797Z,380
2017-12-02T13:51:17.374Z,380
2017-12-02T13:52:27.392Z,368
2017-12-02T13:53:36.866Z,356
2017-12-02T13:54:46.649Z,352
2017-12-02T13:55:56.384Z,328
2017-12-02T13:57:06.139Z,324
2017-12-02T13:58:15.867Z,312
2017-12-02T13:59:25.641Z,316
2017-12-02T14:00:35.380Z,300
2017-12-02T14:01:44.853Z,320
2017-12-02T14:02:54.599Z,320
2017-12-02T14:04:04.374Z,300
2017-12-02T14:05:14.417Z,292
2017-12-02T14:06:24.350Z,288
2017-12-02T14:07:33.785Z,288
2017-12-02T14:08:43.631Z,296
2017-12-02T14:09:53.851Z,300
2017-12-02T14:11:03.155Z,296
2017-12-02T14:12:12.629Z,320
2017-12-02T14:13:22.104Z,328
2017-12-02T14:14:32.116Z,328
2017-12-02T14:15:41.590Z,300
2017-12-02T14:16:51.057Z,260
2017-12-02T14:18:01.121Z,244
2017-12-02T14:19:10.630Z,236
2017-12-02T14:20:20.671Z,224
2017-12-02T14:21:30.695Z,208
2017-12-02T14:22:40.702Z,196
2017-12-02T14:23:50.737Z,188
2017-12-02T14:25:00.490Z,184
2017-12-02T14:26:09.967Z,176
2017-12-02T14:27:19.705Z,164
2017-12-02T14:28:29.432Z,168
2017-12-02T14:29:39.427Z,180
2017-12-02T14:30:49.453Z,176
2017-12-02T14:31:59.481Z,168
2017-12-02T14:33:08.690Z,160
2017-12-02T14:34:18.684Z,164
2017-12-02T14:35:28.426Z,168
2017-12-02T14:36:37.915Z,164
2017-12-02T14:37:48.007Z,172
2017-12-02T14:38:57.799Z,172
2017-12-02T14:40:07.540Z,164
2017-12-02T14:41:17.268Z,160
2017-12-02T14:42:26.552Z,156
2017-12-02T14:43:36.412Z,152
2017-12-02T14:44:45.978Z,152
2017-12-02T14:45:56.142Z,152
2017-12-02T14:47:05.483Z,152
2017-12-02T14:48:15.427Z,148
2017-12-02T14:49:24.807Z,140
2017-12-02T14:50:35.079Z,140
2017-12-02T14:51:44.569Z,140
2017-12-02T14:52:54.958Z,140
2017-12-02T14:54:04.892Z,132
2017-12-02T14:55:14.844Z,128
2017-12-02T14:56:24.350Z,116
2017-12-02T14:57:34.099Z,100
2017-12-02T14:58:43.578Z,96
2017-12-02T14:59:53.645Z,92
2017-12-02T15:01:03.380Z,80
2017-12-02T15:02:13.215Z,80
2017-12-02T15:03:23.201Z,84
2017-12-02T15:04:33.351Z,80
2017-12-02T15:05:43.366Z,80
2017-12-02T15:06:53.368Z,80
2017-12-02T15:08:03.377Z,80
2017-12-02T15:09:13.421Z,76
2017-12-02T15:10:22.995Z,72
2017-12-02T15:11:32.775Z,68
2017-12-02T15:12:42.706Z,56
2017-12-02T15:13:52.975Z,52
2017-12-02T15:15:02.556Z,48
2017-12-02T15:16:12.351Z,44
2017-12-02T15:17:22.209Z,40
2017-12-02T15:18:32.000Z,40
2017-12-02T15:19:42.167Z,40
2017-12-02T15:20:52.218Z,32
2017-12-02T15:22:01.697Z,32
2017-12-02T15:23:11.699Z,28
2017-12-02T15:24:21.452Z,28
2017-12-02T15:25:31.187Z,28
2017-12-02T15:26:40.938Z,28
2017-12-02T15:27:50.945Z,24
2017-12-02T15:29:00.952Z,24
2017-12-02T15:30:10.447Z,20
2017-12-02T15:31:20.504Z,20
2017-12-02T15:32:30.252Z,16
2017-12-02T15:33:39.711Z,12
2017-12-02T15:34:49.783Z,16
2017-12-02T15:35:59.786Z,12
2017-12-02T15:37:09.688Z,8
2017-12-02T15:38:19.243Z,8
2017-12-02T15:39:29.194Z,8
2017-12-02T15:40:38.772Z,8
2017-12-02T15:41:48.297Z,8
2017-12-02T15:42:58.122Z,8
2017-12-02T15:44:07.799Z,4
2017-12-02T15:45:17.871Z,4
2017-12-02T15:46:27.937Z,8
2017-12-02T15:47:37.694Z,4
2017-12-02T15:48:47.527Z,4
2017-12-02T15:49:57.682Z,4
2017-12-02T15:51:07.522Z,4
2017-12-02T15:52:17.283Z,4
2017-12-02T15:53:27.016Z,4
2017-12-02T15:54:37.283Z,4
2017-12-02T15:55:47.281Z,4
2017-12-02T15:56:57.031Z,4
2017-12-02T15:58:06.902Z,4
2017-12-02T15:59:16.898Z,4
2017-12-02T16:00:26.645Z,0
2017-12-02T16:01:36.376Z,0
2017-12-02T16:02:46.384Z,0
2017-12-02T16:03:56.141Z,0
2017-12-02T16:05:05.542Z,4
2017-12-02T16:06:15.329Z,4
2017-12-02T16:07:25.330Z,4
2017-12-02T16:08:35.060Z,4
2017-12-02T16:09:44.794Z,4
2017-12-02T16:10:54.003Z,4
2017-12-02T16:12:03.757Z,4
2017-12-02T16:13:13.232Z,4
2017-12-02T16:14:23.240Z,4
2017-12-02T16:15:33.273Z,4
2017-12-02T16:16:43.037Z,4
2017-12-02T16:17:53.127Z,4
2017-12-02T16:19:03.151Z,4
2017-12-02T16:20:12.927Z,4
2017-12-02T16:21:22.918Z,4
2017-12-02T16:22:32.923Z,4
2017-12-02T16:23:42.650Z,4
2017-12-02T16:24:52.429Z,4
2017-12-02T16:26:02.109Z,4
2017-12-02T16:27:11.904Z,4
2017-12-02T16:28:21.650Z,4
2017-12-02T16:29:30.851Z,4
2017-12-02T16:30:40.646Z,4
2017-12-02T16:31:50.378Z,4
2017-12-02T16:33:00.111Z,4
2017-12-02T16:34:10.172Z,4